createdAt,value
2018-11-04T00:01:56.756Z,30.80
2018-11-04T00:04:25.185Z,32.23
2018-11-04T00:06:53.650Z,33.40
2018-11-04T00:09:22.017Z,34.43
2018-11-04T00:11:50.419Z,34.97
2018-11-04T00:14:18.851Z,33.13
2018-11-04T00:16:47.236Z,34.10
2018-11-04T00:19:15.770Z,33.43
2018-11-04T00:21:44.259Z,36.67
2018-11-04T00:24:12.703Z,31.93
2018-11-04T00:26:41.231Z,29.70
2018-11-04T00:29:09.732Z,32.73
2018-11-04T00:31:38.210Z,31.63
2018-11-04T00:34:06.720Z,32.87
2018-11-04T00:36:35.130Z,35.93
2018-11-04T00:39:05.876Z,29.67
2018-11-04T00:41:34.296Z,31.13
2018-11-04T00:44:02.740Z,29.60
2018-11-04T00:46:31.114Z,30.20
2018-11-04T00:48:59.451Z,31.00
2018-11-04T00:51:27.751Z,31.97
2018-11-04T00:53:56.081Z,31.63
2018-11-04T00:56:24.488Z,31.27
2018-11-04T00:58:52.830Z,26.77
2018-11-04T01:01:21.353Z,29.47
2018-11-04T01:03:49.880Z,29.43
2018-11-04T01:06:18.256Z,33.13
2018-11-04T01:08:46.640Z,34.23
2018-11-04T01:11:15.196Z,32.23
2018-11-04T01:13:43.509Z,28.27
2018-11-04T01:16:11.854Z,31.67
2018-11-04T01:18:40.202Z,31.83
2018-11-04T01:21:08.599Z,30.73
2018-11-04T01:23:37.096Z,33.23
2018-11-04T01:26:05.810Z,33.37
2018-11-04T01:28:34.164Z,31.43
2018-11-04T01:31:02.543Z,37.30
2018-11-04T01:33:30.882Z,32.67
2018-11-04T01:35:59.268Z,31.37
2018-11-04T01:38:27.606Z,33.37
2018-11-04T01:41:01.527Z,34.97
2018-11-04T01:43:29.876Z,31.77
2018-11-04T01:45:58.217Z,33.00
2018-11-04T01:48:26.594Z,33.07
2018-11-04T01:50:55.036Z,32.83
2018-11-04T01:53:23.393Z,34.37
2018-11-04T01:55:51.779Z,35.07
2018-11-04T01:58:20.115Z,29.57
2018-11-04T02:00:48.506Z,33.43
2018-11-04T02:03:23.428Z,30.73
2018-11-04T02:05:51.918Z,33.47
2018-11-04T02:08:20.311Z,32.07
2018-11-04T02:10:48.671Z,30.40
2018-11-04T02:13:17.041Z,28.83
2018-11-04T02:15:45.463Z,30.93
2018-11-04T02:18:13.816Z,30.37
2018-11-04T02:20:42.218Z,29.37
2018-11-04T02:23:10.547Z,28.37
2018-11-04T02:25:38.965Z,27.03
2018-11-04T02:28:07.311Z,29.20
2018-11-04T02:30:35.636Z,28.93
2018-11-04T02:33:03.979Z,27.83
2018-11-04T02:35:32.327Z,26.30
2018-11-04T02:38:00.647Z,27.20
2018-11-04T02:43:21.723Z,25.10
2018-11-04T02:45:50.044Z,26.27
2018-11-04T02:48:18.441Z,25.77
2018-11-04T02:50:46.778Z,26.73
2018-11-04T02:53:15.135Z,25.87
2018-11-04T02:55:43.448Z,27.13
2018-11-04T02:58:11.774Z,25.57
2018-11-04T03:00:40.095Z,24.80
2018-11-04T03:03:08.455Z,26.63
2018-11-04T03:05:36.749Z,28.17
2018-11-04T03:08:05.547Z,23.30
2018-11-04T03:10:33.835Z,28.17
2018-11-04T03:13:02.240Z,24.43
2018-11-04T03:15:30.568Z,26.57
2018-11-04T03:17:59.008Z,23.13
2018-11-04T03:20:27.365Z,25.23
2018-11-04T03:22:55.715Z,23.40
2018-11-04T03:25:24.084Z,22.00
2018-11-04T03:27:52.412Z,26.37
2018-11-04T03:30:20.814Z,26.40
2018-11-04T03:32:49.367Z,24.10
2018-11-04T03:35:17.928Z,22.40
2018-11-04T03:37:46.235Z,24.40
2018-11-04T03:40:14.658Z,24.03
2018-11-04T03:42:43.323Z,22.77
2018-11-04T03:45:12.015Z,21.37
2018-11-04T03:47:40.917Z,25.03
2018-11-04T03:50:11.161Z,23.07
2018-11-04T03:52:39.553Z,20.50
2018-11-04T03:55:11.659Z,21.73
2018-11-04T03:57:40.009Z,22.30
2018-11-04T04:00:10.902Z,21.20
2018-11-04T04:02:39.834Z,23.83
2018-11-04T04:05:09.424Z,22.43
2018-11-04T04:07:38.109Z,22.13
2018-11-04T04:10:07.633Z,24.33
2018-11-04T04:12:36.320Z,23.20
2018-11-04T04:15:05.804Z,22.43
2018-11-04T04:17:34.187Z,20.50
2018-11-04T04:20:02.761Z,21.83
2018-11-04T04:22:31.098Z,24.03
2018-11-04T04:24:59.474Z,23.50
2018-11-04T04:27:27.827Z,22.80
2018-11-04T04:29:56.255Z,19.13
2018-11-04T04:32:24.764Z,22.37
2018-11-04T04:34:53.107Z,23.37
2018-11-04T04:37:21.525Z,22.53
2018-11-04T04:39:49.875Z,21.97
2018-11-04T04:42:18.208Z,22.67
2018-11-04T04:44:47.324Z,20.63
2018-11-04T04:47:15.692Z,20.93
2018-11-04T04:49:44.080Z,23.50
2018-11-04T04:52:12.431Z,22.47
2018-11-04T04:54:40.780Z,21.30
2018-11-04T04:57:09.126Z,26.27
2018-11-04T04:59:37.520Z,20.77
2018-11-04T05:02:06.106Z,20.73
2018-11-04T05:04:34.511Z,22.50
2018-11-04T05:07:02.991Z,23.23
2018-11-04T05:09:31.327Z,21.47
2018-11-04T05:11:59.675Z,21.97
2018-11-04T05:14:28.037Z,22.83
2018-11-04T05:16:56.421Z,22.60
2018-11-04T05:19:24.947Z,23.80
2018-11-04T05:21:53.381Z,23.37
2018-11-04T05:24:21.767Z,22.63
2018-11-04T05:26:50.128Z,22.30
2018-11-04T05:29:18.477Z,23.37
2018-11-04T05:31:46.869Z,22.97
2018-11-04T05:34:15.824Z,26.33
2018-11-04T05:36:51.183Z,23.27
2018-11-04T05:39:19.513Z,26.20
2018-11-04T05:41:47.842Z,22.27
2018-11-04T05:44:16.365Z,25.67
2018-11-04T05:46:44.638Z,26.80
2018-11-04T05:49:12.960Z,23.40
2018-11-04T05:51:41.272Z,23.33
2018-11-04T05:54:09.599Z,22.23
2018-11-04T05:56:37.927Z,23.33
2018-11-04T05:59:06.223Z,23.17
2018-11-04T06:01:34.581Z,23.77
2018-11-04T06:04:02.899Z,25.73
2018-11-04T06:06:31.255Z,24.10
2018-11-04T06:08:59.597Z,24.83
2018-11-04T06:11:27.946Z,28.10
2018-11-04T06:13:57.179Z,25.60
2018-11-04T06:16:25.500Z,26.20
2018-11-04T06:18:53.867Z,27.57
2018-11-04T06:21:22.209Z,26.23
2018-11-04T06:23:50.515Z,25.03
2018-11-04T06:26:18.809Z,25.80
2018-11-04T06:28:47.146Z,25.33
2018-11-04T06:31:15.481Z,27.07
2018-11-04T06:33:43.795Z,26.43
2018-11-04T06:36:12.670Z,24.37
2018-11-04T06:38:40.987Z,27.43
2018-11-04T06:41:09.454Z,24.40
2018-11-04T06:43:37.930Z,22.93
2018-11-04T06:46:06.656Z,25.67
2018-11-04T06:48:35.013Z,26.47
2018-11-04T06:51:03.314Z,28.10
2018-11-04T06:53:31.664Z,25.60
2018-11-04T06:55:59.979Z,26.23
2018-11-04T06:58:28.405Z,26.10
2018-11-04T07:00:56.746Z,29.73
2018-11-04T07:03:25.162Z,26.50
2018-11-04T07:05:53.501Z,28.03
2018-11-04T07:08:21.814Z,27.57
2018-11-04T07:10:50.134Z,24.50
2018-11-04T07:13:18.470Z,26.57
2018-11-04T07:15:46.806Z,28.17
2018-11-04T07:18:15.200Z,26.17
2018-11-04T07:20:43.502Z,28.63
2018-11-04T07:23:11.818Z,28.77
2018-11-04T07:25:40.306Z,28.47
2018-11-04T07:28:08.856Z,28.23
2018-11-04T07:30:37.386Z,27.73
2018-11-04T07:33:05.946Z,24.53
2018-11-04T07:35:34.347Z,24.13
2018-11-04T07:38:02.744Z,28.20
2018-11-04T07:43:25.729Z,25.73
2018-11-04T07:45:54.164Z,25.63
2018-11-04T07:48:22.522Z,26.90
2018-11-04T07:50:50.960Z,29.33
2018-11-04T07:53:19.381Z,26.40
2018-11-04T07:55:47.707Z,25.17
2018-11-04T07:58:16.129Z,25.47
2018-11-04T08:00:44.576Z,25.67
2018-11-04T08:03:12.991Z,24.47
2018-11-04T08:05:41.429Z,28.00
2018-11-04T08:08:09.744Z,23.93
2018-11-04T08:10:38.182Z,28.17
2018-11-04T08:13:06.578Z,26.77
2018-11-04T08:15:34.893Z,24.97
2018-11-04T08:18:03.372Z,24.13
2018-11-04T08:20:31.725Z,29.87
2018-11-04T08:23:00.070Z,29.00
2018-11-04T08:25:28.424Z,25.87
2018-11-04T08:27:56.823Z,30.70
2018-11-04T08:30:25.221Z,26.57
2018-11-04T08:32:53.859Z,25.57
2018-11-04T08:35:22.239Z,26.20
2018-11-04T08:37:50.675Z,27.60
2018-11-04T08:40:20.305Z,28.63
2018-11-04T08:42:48.783Z,26.53
2018-11-04T08:45:17.377Z,26.17
2018-11-04T08:47:45.921Z,29.73
2018-11-04T08:50:14.347Z,32.27
2018-11-04T08:52:42.782Z,28.20
2018-11-04T08:55:11.412Z,25.90
2018-11-04T08:57:39.723Z,29.03
2018-11-04T09:00:10.776Z,27.57
2018-11-04T09:02:39.421Z,28.03
2018-11-04T09:05:08.249Z,29.03
2018-11-04T09:13:23.164Z,29.23
2018-11-04T09:15:51.574Z,28.67
2018-11-04T09:18:20.014Z,27.10
2018-11-04T09:20:48.440Z,28.53
2018-11-04T09:23:16.790Z,28.60
2018-11-04T09:25:45.189Z,28.97
2018-11-04T09:28:13.634Z,28.37
2018-11-04T09:30:41.928Z,29.77
2018-11-04T09:33:10.287Z,29.37
2018-11-04T09:35:38.778Z,28.90
2018-11-04T09:38:07.215Z,30.57
2018-11-04T09:40:35.549Z,28.67
2018-11-04T09:43:04.116Z,27.93
2018-11-04T09:45:32.476Z,24.30
2018-11-04T09:48:00.747Z,32.07
2018-11-04T09:50:29.185Z,27.83
2018-11-04T09:52:57.488Z,27.70
2018-11-04T09:55:26.180Z,27.37
2018-11-04T09:57:54.543Z,31.17
2018-11-04T10:00:22.872Z,25.90
2018-11-04T10:02:51.314Z,27.40
2018-11-04T10:05:19.843Z,29.23
2018-11-04T10:07:48.332Z,30.67
2018-11-04T10:10:16.776Z,29.30
2018-11-04T10:12:45.375Z,28.53
2018-11-04T10:15:13.945Z,29.20
2018-11-04T10:17:42.543Z,27.47
2018-11-04T10:20:12.446Z,26.40
2018-11-04T10:22:41.148Z,28.83
2018-11-04T10:25:11.064Z,27.60
2018-11-04T10:27:39.901Z,28.47
2018-11-04T10:30:10.403Z,26.87
2018-11-04T10:32:38.920Z,26.70
2018-11-04T10:35:08.061Z,28.40
2018-11-04T10:37:36.665Z,30.60
2018-11-04T10:40:06.113Z,30.80
2018-11-04T10:42:34.462Z,28.07
2018-11-04T10:45:02.872Z,28.63
2018-11-04T10:47:31.253Z,26.97
2018-11-04T10:50:01.382Z,26.50
2018-11-04T10:52:29.898Z,25.10
2018-11-04T10:54:58.240Z,24.20
2018-11-04T10:57:26.740Z,26.67
2018-11-04T10:59:55.131Z,25.43
2018-11-04T11:02:23.439Z,23.90
2018-11-04T11:04:51.794Z,24.27
2018-11-04T11:07:20.262Z,27.60
2018-11-04T11:09:49.105Z,27.00
2018-11-04T11:12:20.569Z,27.53
2018-11-04T11:14:48.876Z,25.90
2018-11-04T11:17:17.216Z,24.90
2018-11-04T11:19:45.578Z,25.60
2018-11-04T11:22:13.925Z,25.40
2018-11-04T11:24:42.196Z,25.97
2018-11-04T11:27:10.636Z,26.07
2018-11-04T11:29:38.952Z,25.83
2018-11-04T11:32:07.729Z,25.87
2018-11-04T11:34:37.245Z,27.50
2018-11-04T11:37:06.028Z,24.90
2018-11-04T11:39:34.347Z,26.23
2018-11-04T11:42:02.687Z,27.20
2018-11-04T11:44:31.258Z,27.00
2018-11-04T11:46:59.912Z,24.63
2018-11-04T11:49:28.293Z,28.10
2018-11-04T11:51:56.599Z,27.17
2018-11-04T11:54:24.939Z,25.80
2018-11-04T11:56:58.873Z,26.43
2018-11-04T11:59:27.396Z,25.13
2018-11-04T12:01:55.873Z,26.53
2018-11-04T12:04:24.280Z,28.30
2018-11-04T12:06:52.616Z,26.30
2018-11-04T12:09:21.123Z,37.70
2018-11-04T12:11:49.520Z,28.67
2018-11-04T12:14:17.893Z,25.90
2018-11-04T12:16:46.308Z,24.93
2018-11-04T12:19:14.953Z,25.17
2018-11-04T12:21:43.457Z,26.90
2018-11-04T12:24:11.807Z,24.70
2018-11-04T12:26:40.254Z,24.93
2018-11-04T12:29:08.924Z,27.27
2018-11-04T12:31:37.279Z,26.97
2018-11-04T12:34:05.850Z,28.03
2018-11-04T12:36:34.312Z,26.67
2018-11-04T12:39:02.795Z,26.70
2018-11-04T12:41:31.101Z,25.50
2018-11-04T12:43:59.479Z,25.00
2018-11-04T12:46:27.835Z,26.20
2018-11-04T12:48:56.170Z,29.07
2018-11-04T12:51:24.504Z,24.83
2018-11-04T12:53:52.896Z,29.00
2018-11-04T12:56:21.276Z,27.40
2018-11-04T12:58:49.620Z,27.87
2018-11-04T13:01:17.937Z,27.00
2018-11-04T13:03:46.269Z,28.70
2018-11-04T13:06:14.903Z,30.37
2018-11-04T13:08:43.220Z,27.10
2018-11-04T13:11:11.600Z,26.50
2018-11-04T13:13:40.172Z,27.47
2018-11-04T13:16:08.602Z,29.03
2018-11-04T13:18:37.077Z,29.47
2018-11-04T13:21:06.182Z,30.07
2018-11-04T13:23:34.741Z,28.40
2018-11-04T13:26:03.062Z,26.90
2018-11-04T13:28:31.385Z,27.23
2018-11-04T13:30:59.755Z,27.60
2018-11-04T13:33:28.100Z,30.63
2018-11-04T13:35:56.453Z,29.37
2018-11-04T13:38:24.948Z,28.33
2018-11-04T13:40:53.288Z,31.63
2018-11-04T13:43:22.398Z,28.77
2018-11-04T13:45:51.247Z,28.38
2018-11-04T13:48:21.734Z,29.50
2018-11-04T13:50:50.064Z,30.30
2018-11-04T13:53:18.399Z,28.70
2018-11-04T13:55:48.267Z,27.85
2018-11-04T13:58:16.635Z,30.67
2018-11-04T14:00:45.506Z,32.48
2018-11-04T14:03:13.893Z,32.23
2018-11-04T14:05:42.790Z,30.05
2018-11-04T14:08:11.316Z,29.25
2018-11-04T14:10:40.237Z,29.63
2018-11-04T14:13:09.159Z,29.30
2018-11-04T14:15:38.293Z,30.32
2018-11-04T14:18:06.637Z,30.60
2018-11-04T14:20:35.561Z,29.70
2018-11-04T14:23:03.873Z,29.27
2018-11-04T14:25:32.807Z,29.12
2018-11-04T14:28:01.794Z,31.73
2018-11-04T14:30:30.256Z,29.50
2018-11-04T14:32:58.588Z,30.30
2018-11-04T14:35:26.928Z,30.87
2018-11-04T14:37:55.286Z,30.20
2018-11-04T14:40:24.217Z,28.98
2018-11-04T14:42:52.567Z,29.70
2018-11-04T14:45:20.916Z,28.83
2018-11-04T14:47:49.241Z,29.83
2018-11-04T14:50:19.185Z,30.33
2018-11-04T14:52:48.126Z,32.23
2018-11-04T14:55:16.642Z,33.30
2018-11-04T14:57:45.667Z,29.43
2018-11-04T15:00:18.635Z,33.83
2018-11-04T15:02:47.006Z,31.90
2018-11-04T15:05:15.372Z,33.47
2018-11-04T15:07:43.749Z,31.70
2018-11-04T15:10:14.290Z,34.10
2018-11-04T15:12:42.637Z,34.30
2018-11-04T15:15:14.807Z,35.83
2018-11-04T15:17:43.132Z,34.37
2018-11-04T15:20:12.187Z,33.77
2018-11-04T15:22:44.561Z,33.57
2018-11-04T15:25:13.441Z,36.63
2018-11-04T15:27:42.594Z,34.70
2018-11-04T15:30:12.527Z,33.67
2018-11-04T15:32:43.494Z,34.23
2018-11-04T15:35:12.801Z,32.80
2018-11-04T15:37:41.116Z,39.80
2018-11-04T15:40:10.938Z,33.57
2018-11-04T15:42:39.402Z,41.40
2018-11-04T15:45:08.932Z,35.73
2018-11-04T15:47:37.534Z,36.40
2018-11-04T15:50:07.462Z,40.53
2018-11-04T15:52:39.428Z,39.67
2018-11-04T15:55:08.234Z,38.40
2018-11-04T15:57:36.946Z,40.23
2018-11-04T16:00:07.236Z,40.47
2018-11-04T16:02:35.624Z,39.57
2018-11-04T16:05:04.357Z,44.43
2018-11-04T16:07:32.690Z,41.63
2018-11-04T16:10:02.325Z,49.83
2018-11-04T16:12:31.288Z,43.53
2018-11-04T16:15:00.087Z,45.40
2018-11-04T16:17:29.424Z,45.10
2018-11-04T16:19:57.848Z,46.53
2018-11-04T16:22:26.661Z,49.03
2018-11-04T16:24:55.315Z,45.93
2018-11-04T16:27:23.784Z,49.20
2018-11-04T16:29:52.162Z,48.90
2018-11-04T16:32:20.467Z,47.30
2018-11-04T16:34:48.797Z,48.27
2018-11-04T16:37:17.265Z,46.90
2018-11-04T16:39:45.657Z,47.90
2018-11-04T16:42:14.154Z,45.77
2018-11-04T16:44:43.455Z,46.23
2018-11-04T16:47:12.324Z,46.60
2018-11-04T16:49:41.131Z,46.17
2018-11-04T16:52:10.644Z,46.70
2018-11-04T16:54:39.233Z,45.33
2018-11-04T16:57:09.658Z,47.87
2018-11-04T16:59:38.630Z,46.07
2018-11-04T17:02:07.290Z,48.90
2018-11-04T17:04:35.968Z,45.83
2018-11-04T17:07:05.046Z,47.93
2018-11-04T17:09:33.400Z,49.23
2018-11-04T17:12:05.203Z,48.27
2018-11-04T17:14:34.003Z,46.27
2018-11-04T17:17:02.326Z,47.70
2018-11-04T17:19:30.650Z,50.80
2018-11-04T17:21:58.997Z,43.90
2018-11-04T17:24:28.310Z,45.17
2018-11-04T17:26:56.615Z,41.50
2018-11-04T17:29:24.954Z,46.57
2018-11-04T17:31:55.655Z,43.67
2018-11-04T17:34:33.545Z,46.20
2018-11-04T17:37:02.203Z,43.07
2018-11-04T17:39:31.261Z,42.13
2018-11-04T17:41:59.732Z,42.57
2018-11-04T17:44:28.063Z,44.33
2018-11-04T17:46:56.949Z,42.17
2018-11-04T17:49:25.275Z,41.13
2018-11-04T17:51:54.717Z,43.03
2018-11-04T17:54:23.070Z,42.43
2018-11-04T17:56:52.597Z,41.37
2018-11-04T17:59:21.780Z,39.13
2018-11-04T18:01:50.966Z,41.27
2018-11-04T18:04:20.050Z,43.63
2018-11-04T18:06:48.678Z,43.17
2018-11-04T18:09:17.403Z,43.47
2018-11-04T18:11:45.747Z,41.53
2018-11-04T18:14:14.259Z,42.00
2018-11-04T18:16:42.558Z,44.67
2018-11-04T18:19:11.346Z,44.43
2018-11-04T18:21:42.765Z,41.63
2018-11-04T18:24:11.825Z,44.00
2018-11-04T18:26:49.615Z,42.50
2018-11-04T18:29:19.823Z,45.43
2018-11-04T18:31:48.241Z,47.77
2018-11-04T18:34:16.697Z,47.77
2018-11-04T18:36:46.684Z,46.97
2018-11-04T18:39:18.971Z,44.30
2018-11-04T18:41:47.407Z,46.10
2018-11-04T18:44:15.865Z,46.30
2018-11-04T18:46:45.016Z,45.80
2018-11-04T18:49:13.668Z,52.03
2018-11-04T18:51:43.487Z,47.17
2018-11-04T18:54:12.934Z,47.20
2018-11-04T18:56:45.096Z,48.43
2018-11-04T18:59:13.702Z,49.70
2018-11-04T19:01:42.508Z,46.77
2018-11-04T19:04:10.922Z,47.47
2018-11-04T19:06:39.315Z,47.03
2018-11-04T19:09:10.160Z,47.57
2018-11-04T19:11:38.645Z,48.47
2018-11-04T19:14:07.734Z,48.73
2018-11-04T19:16:36.183Z,48.77
2018-11-04T19:19:05.042Z,53.47
2018-11-04T19:21:33.463Z,52.77
2018-11-04T19:24:02.113Z,54.70
2018-11-04T19:26:30.801Z,53.90
2018-11-04T19:28:59.368Z,58.17
2018-11-04T19:31:27.983Z,57.40
2018-11-04T19:33:56.443Z,59.20
2018-11-04T19:36:24.807Z,61.63
2018-11-04T19:38:53.218Z,58.70
2018-11-04T19:41:21.842Z,59.80
2018-11-04T19:43:50.255Z,58.87
2018-11-04T19:46:18.656Z,61.00
2018-11-04T19:48:47.264Z,56.17
2018-11-04T19:51:15.780Z,59.23
2018-11-04T19:53:44.085Z,60.73
2018-11-04T19:56:12.507Z,61.97
2018-11-04T19:58:41.066Z,59.03
2018-11-04T20:01:09.933Z,61.40
2018-11-04T20:03:38.286Z,60.63
2018-11-04T20:06:07.137Z,59.13
2018-11-04T20:08:36.086Z,61.67
2018-11-04T20:11:04.638Z,70.13
2018-11-04T20:13:38.387Z,65.97
2018-11-04T20:16:06.901Z,63.63
2018-11-04T20:18:40.656Z,67.23
2018-11-04T20:21:09.195Z,64.40
2018-11-04T20:23:37.602Z,65.47
2018-11-04T20:26:08.316Z,70.43
2018-11-04T20:28:37.035Z,63.83
2018-11-04T20:31:05.978Z,65.60
2018-11-04T20:33:34.472Z,68.43
2018-11-04T20:36:02.981Z,65.50
2018-11-04T20:38:36.704Z,67.00
2018-11-04T20:41:10.720Z,63.27
2018-11-04T20:43:39.096Z,66.33
2018-11-04T20:46:07.526Z,67.53
2018-11-04T20:48:44.289Z,74.03
2018-11-04T20:51:12.940Z,70.57
2018-11-04T20:53:41.432Z,73.03
2018-11-04T20:56:15.132Z,68.80
2018-11-04T20:58:43.670Z,73.73
2018-11-04T21:01:12.138Z,68.77
2018-11-04T21:03:41.876Z,68.27
2018-11-04T21:06:11.021Z,66.17
2018-11-04T21:08:39.629Z,69.00
2018-11-04T21:11:08.139Z,74.03
2018-11-04T21:13:36.468Z,71.23
2018-11-04T21:16:05.351Z,73.37
2018-11-04T21:18:34.003Z,70.53
2018-11-04T21:21:02.393Z,67.10
2018-11-04T21:23:30.881Z,72.93
2018-11-04T21:25:59.253Z,70.10
2018-11-04T21:28:27.713Z,75.30
2018-11-04T21:30:56.100Z,71.83
2018-11-04T21:33:24.435Z,76.77
2018-11-04T21:35:52.789Z,74.73
2018-11-04T21:38:21.483Z,71.77
2018-11-04T21:40:50.065Z,73.60
2018-11-04T21:43:18.526Z,80.90
2018-11-04T21:45:46.920Z,73.83
2018-11-04T21:48:15.581Z,76.00
2018-11-04T21:50:43.951Z,74.30
2018-11-04T21:53:12.297Z,78.20
2018-11-04T21:55:41.107Z,80.77
2018-11-04T21:58:11.641Z,80.80
2018-11-04T22:00:40.082Z,75.87
2018-11-04T22:03:08.497Z,77.30
2018-11-04T22:05:37.024Z,74.03
2018-11-04T22:08:05.474Z,82.40
2018-11-04T22:10:34.151Z,74.77
2018-11-04T22:13:02.687Z,80.47
2018-11-04T22:15:30.996Z,79.50
2018-11-04T22:17:59.360Z,75.03
2018-11-04T22:20:27.686Z,78.57
2018-11-04T22:22:56.063Z,79.17
2018-11-04T22:25:24.416Z,76.43
2018-11-04T22:27:52.873Z,82.17
2018-11-04T22:30:21.267Z,77.10
2018-11-04T22:32:56.011Z,81.67
2018-11-04T22:35:24.405Z,81.20
2018-11-04T22:37:52.725Z,77.93
2018-11-04T22:40:21.062Z,76.77
2018-11-04T22:42:49.422Z,80.67
2018-11-04T22:45:18.354Z,81.00
2018-11-04T22:47:46.708Z,90.17
2018-11-04T22:50:15.900Z,86.53
2018-11-04T22:52:45.589Z,83.27
2018-11-04T22:55:14.760Z,83.93
2018-11-04T22:57:43.969Z,99.13
2018-11-04T23:00:18.055Z,88.17
2018-11-04T23:02:47.990Z,85.93
2018-11-04T23:05:21.765Z,89.70
2018-11-04T23:07:50.232Z,96.10
2018-11-04T23:10:19.053Z,88.67
2018-11-04T23:12:47.589Z,99.47
2018-11-04T23:15:15.967Z,98.50
2018-11-04T23:17:44.462Z,99.50
2018-11-04T23:20:12.782Z,94.97
2018-11-04T23:22:41.092Z,99.90
2018-11-04T23:25:11.355Z,102.80
2018-11-04T23:27:40.164Z,97.43
2018-11-04T23:30:10.350Z,98.03
2018-11-04T23:32:38.650Z,96.47
2018-11-04T23:35:07.554Z,104.03
2018-11-04T23:37:36.005Z,110.07
2018-11-04T23:40:04.486Z,100.10
2018-11-04T23:42:32.811Z,103.37
2018-11-04T23:45:01.144Z,106.30
2018-11-04T23:47:29.538Z,104.90
2018-11-04T23:49:57.899Z,108.17
2018-11-04T23:52:26.231Z,104.57
2018-11-04T23:54:55.934Z,107.60
2018-11-04T23:57:24.269Z,106.43
2018-11-04T23:59:52.629Z,111.90
